Time;durP1;ratioP1;P1;durP2;ratioP2;P2;SDS_P1;SDS_P2;PMS_P1;PMS_P2;Temp;Humidity;BMP_temperature;BMP_pressure;BME280_temperature;BME280_humidity;BME280_pressure;Samples;Min_cycle;Max_cycle;Signal;HPM_P1;HPM_P2
2021/03/01 00:00:48;;;;;;;6.20;5.67;;;;;20.00;102332.00;;;;2082584;28;20219;-64
2021/03/01 00:01:48;;;;;;;6.23;5.73;;;;;20.00;102338.00;;;;2084494;28;20210;-64
2021/03/01 00:02:50;;;;;;;7.53;6.83;;;;;20.00;102332.00;;;;2082702;28;20214;-64
2021/03/01 00:03:50;;;;;;;7.18;6.47;;;;;20.00;102332.00;;;;2083233;28;20214;-64
2021/03/01 00:04:50;;;;;;;6.67;6.17;;;;;20.00;102329.00;;;;2082759;28;20221;-64
2021/03/01 00:05:51;;;;;;;6.60;6.00;;;;;20.00;102330.00;;;;2083837;28;20217;-64
2021/03/01 00:06:51;;;;;;;6.27;5.77;;;;;20.00;102331.00;;;;2074387;28;20206;-64
2021/03/01 00:07:52;;;;;;;6.40;5.80;;;;;20.00;102331.00;;;;2075213;28;20257;-64
2021/03/01 00:08:52;;;;;;;6.97;6.37;;;;;20.00;102332.00;;;;2083099;28;20209;-64
2021/03/01 00:09:52;;;;;;;6.00;5.53;;;;;20.00;102331.00;;;;2083799;28;20271;-64
2021/03/01 00:10:52;;;;;;;6.70;6.10;;;;;20.00;102327.00;;;;2083309;28;20209;-64
2021/03/01 00:11:53;;;;;;;6.57;6.07;;;;;20.00;102335.00;;;;2075695;28;20211;-64
2021/03/01 00:12:53;;;;;;;6.70;6.10;;;;;20.00;102335.00;;;;2078481;28;20214;-64
2021/03/01 00:13:53;;;;;;;6.37;5.87;;;;;20.00;102343.00;;;;2086825;28;20228;-64
2021/03/01 00:14:54;;;;;;;8.30;6.80;;;;;20.00;102338.00;;;;2087441;28;20227;-64
2021/03/01 00:15:54;;;;;;;6.83;6.10;;;;;20.00;102340.00;;;;2087831;28;20220;-64
2021/03/01 00:16:55;;;;;;;6.20;5.70;;;;;20.00;102332.00;;;;2083197;28;20237;-64
2021/03/01 00:17:55;;;;;;;6.47;5.97;;;;;20.00;102338.00;;;;2083834;28;20236;-64
2021/03/01 00:18:55;;;;;;;6.27;5.60;;;;;20.00;102336.00;;;;2082833;28;20220;-64
2021/03/01 00:19:56;;;;;;;5.90;5.40;;;;;20.00;102345.00;;;;2078189;28;20228;-64
2021/03/01 00:20:56;;;;;;;6.70;6.10;;;;;20.00;102342.00;;;;2075917;28;20297;-64
2021/03/01 00:21:57;;;;;;;6.73;6.13;;;;;20.00;102339.00;;;;2077807;28;20229;-64
2021/03/01 00:22:57;;;;;;;6.20;5.60;;;;;20.00;102339.00;;;;2081387;28;20601;-64
2021/03/01 00:23:57;;;;;;;6.90;6.30;;;;;20.00;102346.00;;;;2078659;28;20270;-64
2021/03/01 00:24:58;;;;;;;6.50;6.00;;;;;20.00;102344.00;;;;2083868;28;20312;-64
2021/03/01 00:25:58;;;;;;;6.30;5.70;;;;;20.00;102355.00;;;;2074019;28;20222;-64
2021/03/01 00:26:59;;;;;;;7.37;6.70;;;;;20.00;102337.00;;;;2062570;28;20871;-64
2021/03/01 00:27:59;;;;;;;6.83;6.13;;;;;20.00;102337.00;;;;2075275;28;20214;-65
2021/03/01 00:28:59;;;;;;;7.00;6.40;;;;;20.00;102340.00;;;;2070289;28;20214;-64
2021/03/01 00:30:00;;;;;;;6.80;6.20;;;;;20.00;102340.00;;;;2073497;28;20259;-64
2021/03/01 00:31:00;;;;;;;6.70;6.10;;;;;20.00;102335.00;;;;2082587;28;20214;-64
2021/03/01 00:32:00;;;;;;;6.67;6.07;;;;;20.00;102338.00;;;;2084302;28;20202;-64
2021/03/01 00:33:01;;;;;;;7.03;6.40;;;;;20.00;102338.00;;;;2082233;28;20217;-64
2021/03/01 00:34:01;;;;;;;6.47;5.97;;;;;20.00;102337.00;;;;2083633;28;20221;-64
2021/03/01 00:35:03;;;;;;;7.07;6.47;;;;;19.90;102333.00;;;;2082234;28;20206;-64
2021/03/01 00:36:03;;;;;;;7.15;6.53;;;;;20.00;102329.00;;;;2084694;28;20220;-64
2021/03/01 00:37:04;;;;;;;6.67;6.07;;;;;20.00;102330.00;;;;2081806;28;20237;-64
2021/03/01 00:38:04;;;;;;;6.63;5.93;;;;;20.00;102332.00;;;;2084994;28;20217;-64
2021/03/01 00:39:05;;;;;;;6.87;6.27;;;;;20.00;102343.00;;;;2081754;28;20206;-64
2021/03/01 00:40:06;;;;;;;6.27;5.77;;;;;20.00;102328.00;;;;2084961;28;20213;-64
2021/03/01 00:41:06;;;;;;;7.50;6.80;;;;;20.00;102332.00;;;;2073033;28;20222;-64
2021/03/01 00:42:06;;;;;;;6.90;6.30;;;;;20.00;102333.00;;;;2076322;28;20445;-64
2021/03/01 00:43:07;;;;;;;6.60;6.00;;;;;20.00;102334.00;;;;2087259;28;20213;-64
2021/03/01 00:44:07;;;;;;;6.47;5.97;;;;;20.00;102324.00;;;;2072021;28;20262;-64
2021/03/01 00:45:08;;;;;;;6.80;6.20;;;;;20.00;102332.00;;;;2070261;28;20214;-64
2021/03/01 00:46:08;;;;;;;6.63;6.10;;;;;20.00;102338.00;;;;2085400;28;20213;-65
2021/03/01 00:47:09;;;;;;;6.37;5.87;;;;;20.00;102341.00;;;;2080588;28;20460;-65
2021/03/01 00:48:09;;;;;;;6.70;6.13;;;;;20.00;102332.00;;;;2079082;28;20206;-64
2021/03/01 00:49:10;;;;;;;6.80;6.10;;;;;20.00;102333.00;;;;2076589;28;20231;-64
2021/03/01 00:50:10;;;;;;;6.47;5.87;;;;;19.90;102335.00;;;;2072127;28;20225;-64
2021/03/01 00:51:11;;;;;;;6.87;6.20;;;;;20.00;102328.00;;;;2085688;28;20553;-64
2021/03/01 00:52:11;;;;;;;6.70;6.20;;;;;20.00;102332.00;;;;2080822;28;20441;-64
2021/03/01 00:53:20;;;;;;;7.00;6.43;;;;;20.00;102332.00;;;;2085618;28;20331;-64
2021/03/01 00:54:20;;;;;;;6.95;6.25;;;;;20.00;102329.00;;;;2071185;28;20890;-64
2021/03/01 00:55:21;;;;;;;7.10;6.57;;;;;20.00;102332.00;;;;2078120;28;20246;-64
2021/03/01 00:56:21;;;;;;;7.27;6.60;;;;;20.00;102333.00;;;;2078756;28;20217;-65
2021/03/01 00:57:21;;;;;;;7.07;6.47;;;;;19.90;102323.00;;;;2087233;28;20209;-64
2021/03/01 00:58:22;;;;;;;7.20;6.60;;;;;20.00;102338.00;;;;2079280;28;20246;-64
2021/03/01 00:59:24;;;;;;;7.17;6.50;;;;;20.00;102326.00;;;;2086425;28;20209;-64
2021/03/01 01:00:25;;;;;;;6.78;6.20;;;;;19.80;102327.00;;;;2078535;28;20213;-64
2021/03/01 01:01:25;;;;;;;6.47;5.87;;;;;19.90;102329.00;;;;2086819;28;20734;-64
2021/03/01 01:02:26;;;;;;;6.23;5.73;;;;;19.90;102327.00;;;;2078632;28;20240;-64
2021/03/01 01:03:26;;;;;;;6.70;6.10;;;;;19.90;102332.00;;;;2086095;28;20217;-65
2021/03/01 01:04:26;;;;;;;6.77;6.17;;;;;19.90;102325.00;;;;2079045;28;20214;-64
2021/03/01 01:05:27;;;;;;;6.80;6.20;;;;;19.90;102327.00;;;;2086116;28;20213;-64
2021/03/01 01:06:27;;;;;;;6.57;6.07;;;;;19.90;102329.00;;;;2079186;28;20743;-64
2021/03/01 01:07:27;;;;;;;6.03;5.50;;;;;19.90;102326.00;;;;2086237;28;20216;-64
2021/03/01 01:08:28;;;;;;;6.60;6.07;;;;;19.90;102328.00;;;;2079398;28;20210;-64
2021/03/01 01:09:28;;;;;;;7.10;6.50;;;;;19.90;102329.00;;;;2085660;28;20251;-64
2021/03/01 01:10:28;;;;;;;6.57;6.07;;;;;19.90;102332.00;;;;2078450;28;20259;-64
2021/03/01 01:11:29;;;;;;;6.70;6.07;;;;;19.90;102332.00;;;;2086300;28;20316;-65
2021/03/01 01:12:29;;;;;;;7.13;6.53;;;;;19.90;102332.00;;;;2084460;28;20224;-64
2021/03/01 01:13:29;;;;;;;6.87;6.27;;;;;19.90;102330.00;;;;2086441;28;20221;-64
2021/03/01 01:14:30;;;;;;;6.17;5.67;;;;;19.90;102338.00;;;;2086636;28;20217;-64
2021/03/01 01:15:31;;;;;;;6.67;6.07;;;;;19.90;102338.00;;;;2087453;28;20220;-64
2021/03/01 01:16:31;;;;;;;7.60;6.27;;;;;19.90;102341.00;;;;2086205;28;20462;-64
2021/03/01 01:17:31;;;;;;;6.77;6.17;;;;;19.90;102331.00;;;;2079971;28;20213;-64
2021/03/01 01:18:32;;;;;;;6.87;6.27;;;;;19.90;102332.00;;;;2085535;28;20212;-64
2021/03/01 01:19:32;;;;;;;5.77;5.37;;;;;19.90;102332.00;;;;2080130;28;20673;-64
2021/03/01 01:20:33;;;;;;;6.67;6.07;;;;;19.90;102338.00;;;;2068899;28;20775;-64
2021/03/01 01:21:33;;;;;;;6.07;5.57;;;;;19.90;102335.00;;;;2063536;28;20211;-64
2021/03/01 01:22:34;;;;;;;5.83;5.33;;;;;19.90;102341.00;;;;2075953;28;20214;-64
2021/03/01 01:23:34;;;;;;;5.97;5.47;;;;;19.90;102337.00;;;;2071011;28;20203;-64
2021/03/01 01:24:34;;;;;;;6.30;5.80;;;;;19.90;102340.00;;;;2085725;28;20214;-64
2021/03/01 01:25:35;;;;;;;5.77;5.30;;;;;19.90;102335.00;;;;2080397;28;20214;-64
2021/03/01 01:26:35;;;;;;;6.37;5.87;;;;;19.90;102327.00;;;;2085454;28;20224;-64
2021/03/01 01:27:36;;;;;;;6.50;5.90;;;;;19.90;102334.00;;;;2080520;28;20303;-65
2021/03/01 01:28:36;;;;;;;6.20;5.70;;;;;19.90;102332.00;;;;2085275;28;20217;-64
2021/03/01 01:29:36;;;;;;;5.83;5.33;;;;;19.90;102333.00;;;;2080558;28;20214;-64
2021/03/01 01:30:37;;;;;;;5.70;5.20;;;;;19.90;102331.00;;;;2085195;28;20212;-64
2021/03/01 01:31:37;;;;;;;6.20;5.70;;;;;19.90;102333.00;;;;2080618;28;20225;-64
2021/03/01 01:32:38;;;;;;;6.17;5.67;;;;;19.90;102331.00;;;;2085337;28;20217;-64
2021/03/01 01:33:38;;;;;;;6.17;5.67;;;;;19.90;102323.00;;;;2080159;28;20222;-64
2021/03/01 01:34:38;;;;;;;6.20;5.70;;;;;19.90;102330.00;;;;2085275;28;20217;-64
2021/03/01 01:35:39;;;;;;;6.03;5.53;;;;;19.90;102328.00;;;;2080941;28;20838;-64
2021/03/01 01:36:39;;;;;;;5.47;5.07;;;;;19.90;102323.00;;;;2085195;28;20213;-64
2021/03/01 01:37:39;;;;;;;5.90;5.40;;;;;19.90;102321.00;;;;2081050;28;20264;-64
2021/03/01 01:38:40;;;;;;;5.60;5.10;;;;;19.90;102331.00;;;;2084931;28;20201;-64
2021/03/01 01:39:40;;;;;;;5.83;5.33;;;;;19.90;102327.00;;;;2081039;28;20214;-64
2021/03/01 01:40:40;;;;;;;6.80;6.20;;;;;19.90;102324.00;;;;2083854;28;20216;-64
2021/03/01 01:41:41;;;;;;;6.03;5.50;;;;;19.90;102323.00;;;;2080243;28;20225;-64
2021/03/01 01:42:41;;;;;;;6.03;5.53;;;;;19.90;102325.00;;;;2086830;28;20348;-64
2021/03/01 01:43:41;;;;;;;5.93;5.43;;;;;19.90;102323.00;;;;2086360;28;20206;-64
2021/03/01 01:44:42;;;;;;;5.60;5.20;;;;;19.90;102324.00;;;;2087236;28;20209;-64
2021/03/01 01:45:42;;;;;;;5.77;5.27;;;;;19.90;102330.00;;;;2086892;28;20736;-64
2021/03/01 01:46:43;;;;;;;5.47;5.07;;;;;19.80;102325.00;;;;2084547;28;20202;-64
2021/03/01 01:47:43;;;;;;;5.47;5.03;;;;;19.90;102326.00;;;;2081517;28;20218;-64
2021/03/01 01:48:43;;;;;;;6.17;5.67;;;;;19.90;102330.00;;;;2075764;28;20226;-64
2021/03/01 01:49:44;;;;;;;5.90;5.40;;;;;19.90;102324.00;;;;2072563;28;20214;-64
2021/03/01 01:50:44;;;;;;;5.87;5.40;;;;;19.90;102327.00;;;;2082637;28;20303;-64
2021/03/01 01:51:45;;;;;;;6.53;5.93;;;;;19.90;102331.00;;;;2081740;28;20205;-64
2021/03/01 01:52:45;;;;;;;5.80;5.30;;;;;19.90;102328.00;;;;2084206;28;20217;-64
2021/03/01 01:53:45;;;;;;;5.57;5.17;;;;;19.80;102292.00;;;;2061450;28;20684;-64
2021/03/01 01:54:46;;;;;;;5.40;5.00;;;;;19.80;102319.00;;;;2065216;28;20665;-64
2021/03/01 01:55:46;;;;;;;5.60;5.20;;;;;19.80;102322.00;;;;2078075;28;20305;-64
2021/03/01 01:56:46;;;;;;;5.90;5.33;;;;;19.90;102319.00;;;;2072496;28;20214;-64
2021/03/01 01:57:47;;;;;;;5.10;4.70;;;;;19.90;102316.00;;;;2069894;28;20214;-64
2021/03/01 01:58:47;;;;;;;5.77;5.27;;;;;19.90;102319.00;;;;2069433;28;20747;-64
2021/03/01 01:59:47;;;;;;;5.47;4.97;;;;;19.80;102315.00;;;;2072899;28;20756;-64
2021/03/01 02:00:48;;;;;;;5.93;5.43;;;;;19.80;102317.00;;;;2065747;28;20698;-64
2021/03/01 02:01:49;;;;;;;6.07;5.47;;;;;19.90;102315.00;;;;2061306;28;20674;-64
2021/03/01 02:02:50;;;;;;;6.40;5.90;;;;;19.90;102313.00;;;;2073568;28;20213;-64
2021/03/01 02:04:29;;;;;;;5.70;5.30;;;;;19.90;102314.00;;;;2069410;28;20215;-64
2021/03/01 02:05:29;;;;;;;5.55;5.15;;;;;19.90;102311.00;;;;2064820;28;20255;-64
2021/03/01 02:06:46;;;;;;;5.97;5.47;;;;;19.80;102311.00;;;;2069457;28;20215;-64
2021/03/01 02:07:52;;;;;;;5.50;5.00;;;;;19.80;102306.00;;;;2063965;28;20207;-64
2021/03/01 02:09:28;;;;;;;5.35;4.85;;;;;19.80;102304.00;;;;2073994;28;20237;-64
2021/03/01 02:10:36;;;;;;;5.32;4.82;;;;;19.80;102294.00;;;;2070385;28;20241;-64
2021/03/01 02:11:53;;;;;;;4.65;4.35;;;;;19.80;102311.00;;;;2069436;28;20219;-64
2021/03/01 02:12:59;;;;;;;5.20;4.80;;;;;19.80;102305.00;;;;2076134;28;20212;-64
2021/03/01 02:14:17;;;;;;;5.80;5.30;;;;;19.80;102305.00;;;;2084786;28;20331;-64
2021/03/01 02:15:36;;;;;;;6.00;5.50;;;;;19.80;102304.00;;;;2082768;28;20217;-64
2021/03/01 02:16:36;;;;;;;5.68;5.18;;;;;19.80;102303.00;;;;2071253;28;20214;-64
2021/03/01 02:17:36;;;;;;;5.00;4.60;;;;;19.80;102308.00;;;;2075921;28;20303;-64
2021/03/01 02:18:37;;;;;;;5.57;5.07;;;;;19.80;102305.00;;;;2080046;28;20344;-64
2021/03/01 02:19:38;;;;;;;5.73;5.23;;;;;19.80;102299.00;;;;2083716;28;20221;-64
2021/03/01 02:20:42;;;;;;;5.53;5.03;;;;;19.80;102300.00;;;;2076498;28;20246;-64
2021/03/01 02:21:46;;;;;;;5.35;4.85;;;;;19.80;102294.00;;;;2085231;28;20527;-64
2021/03/01 02:22:46;;;;;;;5.40;5.00;;;;;19.80;102297.00;;;;2082819;28;20307;-64
2021/03/01 02:23:47;;;;;;;5.70;5.20;;;;;19.80;102304.00;;;;2075620;28;20219;-64
2021/03/01 02:24:48;;;;;;;6.20;5.60;;;;;19.80;102291.00;;;;2063451;28;20222;-64
2021/03/01 02:26:02;;;;;;;5.35;4.85;;;;;19.80;102298.00;;;;2054963;28;20215;-64
2021/03/01 02:27:03;;;;;;;5.32;4.93;;;;;19.80;102292.00;;;;2057236;28;20211;-64
2021/03/01 02:28:06;;;;;;;5.47;5.07;;;;;19.80;102294.00;;;;2062866;28;20262;-64
2021/03/01 02:29:08;;;;;;;5.40;5.00;;;;;19.80;102298.00;;;;2068474;28;20242;-64
2021/03/01 02:30:13;;;;;;;5.53;5.03;;;;;19.80;102295.00;;;;2065261;28;20211;-64
2021/03/01 02:31:13;;;;;;;5.40;5.00;;;;;19.80;102288.00;;;;2070353;28;20662;-64
2021/03/01 02:32:14;;;;;;;5.33;4.93;;;;;19.80;102295.00;;;;2055664;28;20235;-64
2021/03/01 02:33:17;;;;;;;5.30;4.80;;;;;19.80;102290.00;;;;2061102;28;20242;-64
2021/03/01 02:34:18;;;;;;;4.93;4.53;;;;;19.80;102294.00;;;;2055273;28;20224;-64
2021/03/01 02:35:20;;;;;;;5.87;5.37;;;;;19.80;102293.00;;;;2070260;28;20296;-64
2021/03/01 02:36:22;;;;;;;4.78;4.38;;;;;19.80;102294.00;;;;2071551;28;20455;-64
2021/03/01 02:37:24;;;;;;;5.38;4.97;;;;;19.80;102289.00;;;;2070978;28;20230;-64
2021/03/01 02:38:26;;;;;;;5.30;4.90;;;;;19.80;102293.00;;;;2087368;28;20259;-64
2021/03/01 02:39:27;;;;;;;4.45;4.15;;;;;19.80;102280.00;;;;2080154;28;20309;-65
2021/03/01 02:40:28;;;;;;;5.03;4.63;;;;;19.80;102283.00;;;;2084224;28;20209;-64
2021/03/01 02:41:28;;;;;;;5.17;4.63;;;;;19.80;102271.00;;;;2070927;28;20211;-64
2021/03/01 02:42:28;;;;;;;5.50;5.00;;;;;19.80;102275.00;;;;2063362;28;20208;-64
2021/03/01 02:43:29;;;;;;;5.20;4.80;;;;;19.80;102283.00;;;;2062323;28;20207;-64
2021/03/01 02:44:29;;;;;;;4.80;4.40;;;;;19.70;102280.00;;;;2070346;28;20218;-64
2021/03/01 02:45:30;;;;;;;5.13;4.73;;;;;19.70;102278.00;;;;2062924;28;20212;-64
2021/03/01 02:46:30;;;;;;;5.27;4.87;;;;;19.70;102281.00;;;;2070166;28;20234;-63
2021/03/01 02:47:30;;;;;;;5.70;5.20;;;;;19.80;102270.00;;;;2071499;28;20214;-63
2021/03/01 02:48:31;;;;;;;4.73;4.33;;;;;19.70;102284.00;;;;2069913;28;20318;-64
2021/03/01 02:49:31;;;;;;;5.20;4.70;;;;;19.70;102273.00;;;;2062626;28;20208;-64
2021/03/01 02:50:31;;;;;;;4.83;4.43;;;;;19.80;102281.00;;;;2071111;28;20276;-64
2021/03/01 02:51:33;;;;;;;4.90;4.50;;;;;19.80;102272.00;;;;2070867;28;20253;-64
2021/03/01 02:52:34;;;;;;;5.00;4.60;;;;;19.70;102272.00;;;;2054909;28;20650;-64
2021/03/01 02:53:35;;;;;;;5.03;4.57;;;;;19.70;102270.00;;;;2047897;28;20216;-64
2021/03/01 02:54:35;;;;;;;5.57;5.10;;;;;19.80;102282.00;;;;2064811;28;20543;-64
2021/03/01 02:55:36;;;;;;;5.00;4.60;;;;;19.80;102271.00;;;;2070613;28;20854;-64
2021/03/01 02:56:37;;;;;;;4.93;4.53;;;;;19.80;102275.00;;;;2062873;28;20807;-64
2021/03/01 02:57:37;;;;;;;5.13;4.73;;;;;19.80;102276.00;;;;2073054;28;20704;-64
2021/03/01 02:58:39;;;;;;;4.67;4.27;;;;;19.80;102281.00;;;;2069226;28;20899;-64
2021/03/01 02:59:39;;;;;;;5.28;4.78;;;;;19.70;102276.00;;;;2054765;28;20228;-64
2021/03/01 03:00:39;;;;;;;5.37;4.87;;;;;19.80;102272.00;;;;2065184;28;20233;-64
2021/03/01 03:01:40;;;;;;;5.20;4.70;;;;;19.70;102278.00;;;;2069152;28;20551;-64
2021/03/01 03:02:41;;;;;;;5.20;4.80;;;;;19.80;102269.00;;;;2057255;28;20215;-64
2021/03/01 03:03:41;;;;;;;4.83;4.43;;;;;19.70;102267.00;;;;2054322;28;20227;-64
2021/03/01 03:04:41;;;;;;;4.63;4.30;;;;;19.70;102265.00;;;;2047251;28;20718;-64
2021/03/01 03:05:43;;;;;;;5.40;5.00;;;;;19.80;102266.00;;;;2057290;28;20224;-64
2021/03/01 03:06:43;;;;;;;4.13;3.83;;;;;19.70;102270.00;;;;2076801;28;20228;-64
2021/03/01 03:07:43;;;;;;;5.33;4.93;;;;;19.70;102272.00;;;;2082067;28;21287;-64
2021/03/01 03:08:44;;;;;;;5.40;4.90;;;;;19.70;102257.00;;;;2084757;28;20608;-64
2021/03/01 03:09:46;;;;;;;4.73;4.33;;;;;19.80;102271.00;;;;2073813;28;20283;-64
2021/03/01 03:10:48;;;;;;;5.25;4.75;;;;;19.80;102277.00;;;;2068221;28;20215;-64
2021/03/01 03:11:49;;;;;;;4.72;4.32;;;;;19.70;102267.00;;;;2066670;28;20218;-64
2021/03/01 03:12:49;;;;;;;4.30;4.00;;;;;19.70;102266.00;;;;2086457;28;20723;-64
2021/03/01 03:13:50;;;;;;;5.03;4.63;;;;;19.70;102272.00;;;;2069885;28;20571;-64
2021/03/01 03:14:50;;;;;;;4.73;4.33;;;;;19.70;102270.00;;;;2071110;28;20215;-65
2021/03/01 03:15:54;;;;;;;5.23;4.83;;;;;19.70;102261.00;;;;2074804;28;20685;-64
2021/03/01 03:16:57;;;;;;;5.13;4.65;;;;;19.80;102269.00;;;;2075594;28;20305;-64
2021/03/01 03:17:57;;;;;;;4.97;4.57;;;;;19.70;102268.00;;;;2075726;28;20214;-64
2021/03/01 03:18:57;;;;;;;5.13;4.73;;;;;19.80;102273.00;;;;2058560;28;20831;-64
2021/03/01 03:20:00;;;;;;;4.90;4.50;;;;;19.70;102276.00;;;;2062833;28;20215;-64
2021/03/01 03:21:00;;;;;;;5.13;4.65;;;;;19.70;102267.00;;;;2071106;28;20211;-64
2021/03/01 03:22:00;;;;;;;5.07;4.67;;;;;19.70;102265.00;;;;2075892;28;20310;-64
2021/03/01 03:23:01;;;;;;;4.67;4.27;;;;;19.70;102273.00;;;;2083277;28;20577;-64
2021/03/01 03:24:06;;;;;;;4.60;4.20;;;;;19.70;102271.00;;;;2078604;28;20598;-64
2021/03/01 03:25:08;;;;;;;4.90;4.50;;;;;19.70;102276.00;;;;2084284;28;20213;-64
2021/03/01 03:26:09;;;;;;;5.00;4.60;;;;;19.70;102257.00;;;;2079743;28;20216;-64
2021/03/01 03:27:09;;;;;;;4.40;4.10;;;;;19.70;102273.00;;;;2076958;28;20210;-64
2021/03/01 03:28:10;;;;;;;4.53;4.20;;;;;19.70;102268.00;;;;2072983;28;20222;-64
2021/03/01 03:29:10;;;;;;;5.37;4.97;;;;;19.70;102271.00;;;;2085932;28;20225;-64
2021/03/01 03:30:16;;;;;;;4.63;4.30;;;;;19.70;102269.00;;;;2081437;28;20283;-64
2021/03/01 03:31:17;;;;;;;4.95;4.55;;;;;19.70;102260.00;;;;2086885;28;20213;-64
2021/03/01 03:32:17;;;;;;;4.87;4.47;;;;;19.70;102264.00;;;;2079903;28;20225;-64
2021/03/01 03:33:17;;;;;;;4.80;4.40;;;;;19.70;102271.00;;;;2068575;28;20249;-64
2021/03/01 03:34:20;;;;;;;5.10;4.70;;;;;19.70;102255.00;;;;2077666;28;20631;-64
2021/03/01 03:35:20;;;;;;;4.70;4.30;;;;;19.70;102257.00;;;;2079726;28;20764;-64
2021/03/01 03:36:22;;;;;;;4.13;3.83;;;;;19.70;102266.00;;;;2087258;28;20217;-64
2021/03/01 03:37:43;;;;;;;4.95;4.55;;;;;19.70;102265.00;;;;2079680;28;20218;-64
2021/03/01 03:38:50;;;;;;;5.00;4.60;;;;;19.70;102264.00;;;;2073742;28;20293;-64
2021/03/01 03:39:50;;;;;;;5.18;4.72;;;;;19.70;102254.00;;;;2068094;28;20304;-64
2021/03/01 03:40:53;;;;;;;4.90;4.50;;;;;19.70;102262.00;;;;2074886;28;20221;-64
2021/03/01 03:41:54;;;;;;;5.00;4.60;;;;;19.70;102258.00;;;;2064337;28;20245;-64
2021/03/01 03:42:55;;;;;;;4.47;4.17;;;;;19.70;102269.00;;;;2070559;28;20206;-64
2021/03/01 03:43:56;;;;;;;5.10;4.70;;;;;19.70;102265.00;;;;2069894;28;20777;-64
2021/03/01 03:44:56;;;;;;;4.80;4.43;;;;;19.70;102252.00;;;;2070229;28;20218;-64
2021/03/01 03:45:57;;;;;;;4.83;4.43;;;;;19.70;102255.00;;;;2061944;28;20215;-64
2021/03/01 03:46:57;;;;;;;5.47;4.97;;;;;19.70;102257.00;;;;2057971;28;20216;-65
2021/03/01 03:48:00;;;;;;;5.00;4.60;;;;;19.70;102261.00;;;;2062169;28;20458;-64
2021/03/01 03:49:01;;;;;;;4.50;4.18;;;;;19.70;102258.00;;;;2074113;28;20214;-64
2021/03/01 03:50:03;;;;;;;4.60;4.20;;;;;19.70;102264.00;;;;2079522;28;20217;-64
2021/03/01 03:51:04;;;;;;;5.05;4.65;;;;;19.70;102263.00;;;;2075306;28;20206;-64
2021/03/01 03:52:05;;;;;;;4.40;4.10;;;;;19.70;102274.00;;;;2073243;28;20210;-64
2021/03/01 03:53:12;;;;;;;5.10;4.70;;;;;19.70;102266.00;;;;2062543;28;20283;-64
2021/03/01 03:54:20;;;;;;;5.00;4.60;;;;;19.70;102267.00;;;;2069412;28;20217;-64
2021/03/01 03:55:21;;;;;;;4.93;4.53;;;;;19.70;102263.00;;;;2070525;28;20223;-64
2021/03/01 03:56:24;;;;;;;5.00;4.60;;;;;19.70;102262.00;;;;2077847;28;20222;-64
2021/03/01 03:57:27;;;;;;;4.93;4.43;;;;;19.70;102262.00;;;;2070377;28;20225;-64
2021/03/01 03:58:30;;;;;;;4.80;4.40;;;;;19.70;102265.00;;;;2070472;28;20783;-65
2021/03/01 03:59:32;;;;;;;5.20;4.70;;;;;19.70;102268.00;;;;2071934;28;20313;-65
2021/03/01 04:00:33;;;;;;;4.50;4.10;;;;;19.60;102266.00;;;;2077840;28;20719;-64
2021/03/01 04:01:34;;;;;;;4.95;4.55;;;;;19.70;102259.00;;;;2062919;28;20255;-64
2021/03/01 04:02:35;;;;;;;4.93;4.53;;;;;19.70;102266.00;;;;2070682;28;20207;-64
2021/03/01 04:03:35;;;;;;;5.50;5.10;;;;;19.70;102267.00;;;;2063693;28;21021;-64
2021/03/01 04:04:36;;;;;;;4.90;4.50;;;;;19.70;102261.00;;;;2064036;28;20653;-64
2021/03/01 04:05:39;;;;;;;5.00;4.60;;;;;19.60;102263.00;;;;2078886;28;20229;-64
2021/03/01 04:06:40;;;;;;;4.72;4.32;;;;;19.70;102257.00;;;;2062671;28;20331;-64
2021/03/01 04:07:42;;;;;;;4.60;4.30;;;;;19.70;102265.00;;;;2056699;28;20886;-64
2021/03/01 04:08:43;;;;;;;5.15;4.78;;;;;19.60;102260.00;;;;2054708;28;20452;-64
2021/03/01 04:09:44;;;;;;;5.35;4.85;;;;;19.70;102260.00;;;;2063084;28;20257;-64
2021/03/01 04:10:46;;;;;;;5.30;4.87;;;;;19.60;102257.00;;;;2075846;28;20914;-64
2021/03/01 04:11:47;;;;;;;5.53;5.05;;;;;19.60;102262.00;;;;2073898;28;20329;-64
2021/03/01 04:12:49;;;;;;;4.70;4.37;;;;;19.60;102263.00;;;;2070620;28;20614;-64
2021/03/01 04:13:51;;;;;;;4.25;3.90;;;;;19.70;102255.00;;;;2078117;28;20217;-64
2021/03/01 04:14:51;;;;;;;5.05;4.65;;;;;19.60;102258.00;;;;2078786;28;20210;-64
2021/03/01 04:15:51;;;;;;;4.87;4.47;;;;;19.60;102265.00;;;;2078848;28;20726;-64
2021/03/01 04:16:57;;;;;;;5.20;4.80;;;;;19.60;102265.00;;;;2083913;28;20236;-64
2021/03/01 04:17:57;;;;;;;4.53;4.13;;;;;19.60;102257.00;;;;2064421;28;20214;-64
2021/03/01 04:19:05;;;;;;;5.00;4.60;;;;;19.60;102255.00;;;;2075134;28;20217;-64
2021/03/01 04:20:07;;;;;;;4.90;4.50;;;;;19.60;102265.00;;;;2070495;28;20672;-64
2021/03/01 04:21:08;;;;;;;4.82;4.43;;;;;19.60;102264.00;;;;2076438;28;20198;-64
2021/03/01 04:22:08;;;;;;;4.20;3.90;;;;;19.60;102262.00;;;;2079379;28;20297;-64
2021/03/01 04:23:09;;;;;;;5.00;4.60;;;;;19.70;102266.00;;;;2085679;28;20296;-64
2021/03/01 04:24:09;;;;;;;4.40;4.10;;;;;19.60;102272.00;;;;2064157;28;20208;-64
2021/03/01 04:25:10;;;;;;;4.70;4.33;;;;;19.60;102258.00;;;;2050527;28;20216;-64
2021/03/01 04:26:10;;;;;;;4.57;4.17;;;;;19.60;102277.00;;;;2060503;28;20216;-64
2021/03/01 04:27:10;;;;;;;4.40;4.10;;;;;19.60;102271.00;;;;2062575;28;20220;-64
2021/03/01 04:28:14;;;;;;;4.73;4.37;;;;;19.60;102267.00;;;;2085024;28;20198;-64
2021/03/01 04:29:14;;;;;;;5.07;4.57;;;;;19.60;102266.00;;;;2063612;28;20222;-65
2021/03/01 04:30:14;;;;;;;4.30;4.00;;;;;19.60;102262.00;;;;2054316;28;20254;-64
2021/03/01 04:31:15;;;;;;;4.70;4.30;;;;;19.60;102263.00;;;;2069406;28;20222;-64
2021/03/01 04:32:15;;;;;;;4.73;4.33;;;;;19.60;102255.00;;;;2070374;28;20437;-64
2021/03/01 04:33:17;;;;;;;5.00;4.60;;;;;19.60;102261.00;;;;2068867;28;20233;-64
2021/03/01 04:34:17;;;;;;;5.05;4.65;;;;;19.60;102262.00;;;;2055553;28;24930;-64
2021/03/01 04:35:18;;;;;;;5.13;4.73;;;;;19.60;102265.00;;;;2061624;28;20698;-64
2021/03/01 04:36:19;;;;;;;5.10;4.70;;;;;19.60;102255.00;;;;2054453;28;20591;-64
2021/03/01 04:37:19;;;;;;;5.40;4.93;;;;;19.60;102258.00;;;;2053840;28;20212;-64
2021/03/01 04:38:19;;;;;;;5.03;4.63;;;;;19.60;102257.00;;;;2062315;28;20223;-64
2021/03/01 04:39:20;;;;;;;4.87;4.47;;;;;19.60;102250.00;;;;2062280;28;20211;-64
2021/03/01 04:40:20;;;;;;;5.37;4.87;;;;;19.60;102257.00;;;;2069782;28;20233;-64
2021/03/01 04:41:22;;;;;;;4.80;4.40;;;;;19.60;102258.00;;;;2062939;28;20211;-64
2021/03/01 04:42:23;;;;;;;4.90;4.50;;;;;19.60;102248.00;;;;2061670;28;21052;-64
2021/03/01 04:43:23;;;;;;;4.80;4.40;;;;;19.60;102260.00;;;;2069858;28;20221;-64
2021/03/01 04:44:24;;;;;;;4.60;4.20;;;;;19.60;102252.00;;;;2069426;28;20214;-64
2021/03/01 04:45:24;;;;;;;4.83;4.43;;;;;19.60;102258.00;;;;2062255;28;20218;-64
2021/03/01 04:46:24;;;;;;;4.70;4.30;;;;;19.60;102266.00;;;;2054389;28;20208;-64
2021/03/01 04:47:25;;;;;;;4.67;4.27;;;;;19.60;102257.00;;;;2054138;28;20212;-64
2021/03/01 04:48:25;;;;;;;4.80;4.50;;;;;19.60;102250.00;;;;2062481;28;20243;-64
2021/03/01 04:49:26;;;;;;;5.13;4.73;;;;;19.60;102258.00;;;;2062123;28;20217;-64
2021/03/01 04:50:26;;;;;;;4.80;4.40;;;;;19.60;102253.00;;;;2069787;28;20314;-64
2021/03/01 04:51:27;;;;;;;5.00;4.50;;;;;19.60;102256.00;;;;2070845;28;20229;-64
2021/03/01 04:52:29;;;;;;;5.20;4.80;;;;;19.60;102251.00;;;;2062547;28;20236;-64
2021/03/01 04:53:29;;;;;;;4.60;4.20;;;;;19.60;102254.00;;;;2041973;28;20209;-64
2021/03/01 04:54:29;;;;;;;4.53;4.20;;;;;19.60;102255.00;;;;2046572;28;20208;-64
2021/03/01 04:55:30;;;;;;;4.60;4.20;;;;;19.60;102256.00;;;;2056338;28;20219;-64
2021/03/01 04:56:30;;;;;;;4.50;4.20;;;;;19.60;102253.00;;;;2069592;28;20223;-64
2021/03/01 04:57:30;;;;;;;4.53;4.13;;;;;19.60;102255.00;;;;2071011;28;20237;-64
2021/03/01 04:58:32;;;;;;;5.20;4.80;;;;;19.60;102258.00;;;;2077619;28;20214;-64
2021/03/01 04:59:32;;;;;;;4.45;4.05;;;;;19.60;102257.00;;;;2053469;28;20270;-64
2021/03/01 05:00:33;;;;;;;4.87;4.47;;;;;19.60;102255.00;;;;2054227;28;20271;-64
2021/03/01 05:01:33;;;;;;;4.87;4.47;;;;;19.60;102255.00;;;;2054267;28;20263;-64
2021/03/01 05:02:35;;;;;;;4.97;4.57;;;;;19.60;102254.00;;;;2053814;28;20219;-64
2021/03/01 05:03:37;;;;;;;4.70;4.32;;;;;19.60;102253.00;;;;2063869;28;20310;-64
2021/03/01 05:04:37;;;;;;;4.90;4.50;;;;;19.60;102255.00;;;;2061533;28;20218;-64